sensor_id;sensor_type;location;lat;lon;timestamp;P1;durP1;ratioP1;P2;durP2;ratioP2
13571;SDS011;6857;53.484;10.216;2023-12-20T00:01:00;16.40;;;2.20;;
13571;SDS011;6857;53.484;10.216;2023-12-20T00:03:26;9.63;;;2.23;;
13571;SDS011;6857;53.484;10.216;2023-12-20T00:05:51;11.60;;;2.03;;
13571;SDS011;6857;53.484;10.216;2023-12-20T00:08:17;6.17;;;1.87;;
13571;SDS011;6857;53.484;10.216;2023-12-20T00:10:45;7.53;;;1.80;;
13571;SDS011;6857;53.484;10.216;2023-12-20T00:13:11;10.53;;;2.50;;
13571;SDS011;6857;53.484;10.216;2023-12-20T00:15:36;8.40;;;1.93;;
13571;SDS011;6857;53.484;10.216;2023-12-20T00:18:02;9.30;;;1.70;;
13571;SDS011;6857;53.484;10.216;2023-12-20T00:20:28;6.80;;;1.40;;
13571;SDS011;6857;53.484;10.216;2023-12-20T00:22:56;7.67;;;1.50;;
13571;SDS011;6857;53.484;10.216;2023-12-20T00:25:23;9.60;;;1.70;;
13571;SDS011;6857;53.484;10.216;2023-12-20T00:27:48;10.23;;;1.97;;
13571;SDS011;6857;53.484;10.216;2023-12-20T00:30:14;10.30;;;1.87;;
13571;SDS011;6857;53.484;10.216;2023-12-20T00:32:39;7.73;;;1.53;;
13571;SDS011;6857;53.484;10.216;2023-12-20T00:35:11;13.37;;;2.13;;
13571;SDS011;6857;53.484;10.216;2023-12-20T00:37:37;9.30;;;1.67;;
13571;SDS011;6857;53.484;10.216;2023-12-20T00:40:02;9.07;;;1.63;;
13571;SDS011;6857;53.484;10.216;2023-12-20T00:42:28;9.70;;;1.87;;
13571;SDS011;6857;53.484;10.216;2023-12-20T00:44:54;9.70;;;1.83;;
13571;SDS011;6857;53.484;10.216;2023-12-20T00:47:19;14.60;;;1.63;;
13571;SDS011;6857;53.484;10.216;2023-12-20T00:49:45;8.50;;;1.67;;
13571;SDS011;6857;53.484;10.216;2023-12-20T00:52:10;8.93;;;2.33;;
13571;SDS011;6857;53.484;10.216;2023-12-20T00:54:36;10.77;;;1.93;;
13571;SDS011;6857;53.484;10.216;2023-12-20T00:57:02;12.27;;;1.83;;
13571;SDS011;6857;53.484;10.216;2023-12-20T00:59:27;10.50;;;2.43;;
13571;SDS011;6857;53.484;10.216;2023-12-20T01:01:53;9.47;;;1.83;;
13571;SDS011;6857;53.484;10.216;2023-12-20T01:04:18;8.87;;;1.87;;
13571;SDS011;6857;53.484;10.216;2023-12-20T01:06:44;12.33;;;2.00;;
13571;SDS011;6857;53.484;10.216;2023-12-20T01:09:10;5.87;;;1.60;;
13571;SDS011;6857;53.484;10.216;2023-12-20T01:11:35;9.03;;;1.33;;
13571;SDS011;6857;53.484;10.216;2023-12-20T01:14:01;8.37;;;1.67;;
13571;SDS011;6857;53.484;10.216;2023-12-20T01:16:26;7.90;;;2.00;;
13571;SDS011;6857;53.484;10.216;2023-12-20T01:18:52;7.87;;;1.40;;
13571;SDS011;6857;53.484;10.216;2023-12-20T01:21:17;6.17;;;1.47;;
13571;SDS011;6857;53.484;10.216;2023-12-20T01:23:43;11.00;;;1.80;;
13571;SDS011;6857;53.484;10.216;2023-12-20T01:26:08;10.40;;;2.17;;
13571;SDS011;6857;53.484;10.216;2023-12-20T01:28:34;7.37;;;1.50;;
13571;SDS011;6857;53.484;10.216;2023-12-20T01:30:59;8.63;;;2.00;;
13571;SDS011;6857;53.484;10.216;2023-12-20T01:33:25;7.60;;;1.83;;
13571;SDS011;6857;53.484;10.216;2023-12-20T01:35:50;9.77;;;2.03;;
13571;SDS011;6857;53.484;10.216;2023-12-20T01:38:16;7.03;;;1.60;;
13571;SDS011;6857;53.484;10.216;2023-12-20T01:40:43;8.83;;;1.67;;
13571;SDS011;6857;53.484;10.216;2023-12-20T01:43:09;13.40;;;2.10;;
13571;SDS011;6857;53.484;10.216;2023-12-20T01:45:36;7.33;;;2.03;;
13571;SDS011;6857;53.484;10.216;2023-12-20T01:48:02;14.83;;;2.53;;
13571;SDS011;6857;53.484;10.216;2023-12-20T01:50:29;9.23;;;1.80;;
13571;SDS011;6857;53.484;10.216;2023-12-20T01:52:56;12.80;;;2.17;;
13571;SDS011;6857;53.484;10.216;2023-12-20T01:55:24;9.97;;;1.70;;
13571;SDS011;6857;53.484;10.216;2023-12-20T01:57:52;12.70;;;2.63;;
13571;SDS011;6857;53.484;10.216;2023-12-20T02:00:18;10.57;;;1.77;;
13571;SDS011;6857;53.484;10.216;2023-12-20T02:02:48;8.70;;;2.00;;
13571;SDS011;6857;53.484;10.216;2023-12-20T02:05:14;10.20;;;2.10;;
13571;SDS011;6857;53.484;10.216;2023-12-20T02:07:41;10.83;;;1.93;;
13571;SDS011;6857;53.484;10.216;2023-12-20T02:10:07;8.67;;;2.00;;
13571;SDS011;6857;53.484;10.216;2023-12-20T02:12:32;8.53;;;2.53;;
13571;SDS011;6857;53.484;10.216;2023-12-20T02:14:58;11.10;;;1.90;;
13571;SDS011;6857;53.484;10.216;2023-12-20T02:17:24;9.90;;;1.60;;
13571;SDS011;6857;53.484;10.216;2023-12-20T02:19:51;8.57;;;2.00;;
13571;SDS011;6857;53.484;10.216;2023-12-20T02:22:16;12.00;;;3.60;;
13571;SDS011;6857;53.484;10.216;2023-12-20T02:24:42;10.97;;;2.40;;
13571;SDS011;6857;53.484;10.216;2023-12-20T02:27:07;12.80;;;2.33;;
13571;SDS011;6857;53.484;10.216;2023-12-20T02:29:34;12.00;;;2.40;;
13571;SDS011;6857;53.484;10.216;2023-12-20T02:32:00;10.10;;;2.13;;
13571;SDS011;6857;53.484;10.216;2023-12-20T02:34:25;12.77;;;1.93;;
13571;SDS011;6857;53.484;10.216;2023-12-20T02:36:51;10.97;;;2.40;;
13571;SDS011;6857;53.484;10.216;2023-12-20T02:39:17;11.20;;;2.10;;
13571;SDS011;6857;53.484;10.216;2023-12-20T02:41:43;12.77;;;2.10;;
13571;SDS011;6857;53.484;10.216;2023-12-20T02:44:09;10.87;;;2.13;;
13571;SDS011;6857;53.484;10.216;2023-12-20T02:46:34;7.53;;;2.33;;
13571;SDS011;6857;53.484;10.216;2023-12-20T02:49:00;12.20;;;2.37;;
13571;SDS011;6857;53.484;10.216;2023-12-20T02:51:25;11.40;;;2.00;;
13571;SDS011;6857;53.484;10.216;2023-12-20T02:53:51;9.50;;;2.37;;
13571;SDS011;6857;53.484;10.216;2023-12-20T02:56:16;9.53;;;2.40;;
13571;SDS011;6857;53.484;10.216;2023-12-20T02:58:42;9.53;;;2.30;;
13571;SDS011;6857;53.484;10.216;2023-12-20T03:01:07;8.27;;;2.10;;
13571;SDS011;6857;53.484;10.216;2023-12-20T03:03:33;11.53;;;2.20;;
13571;SDS011;6857;53.484;10.216;2023-12-20T03:05:59;6.10;;;1.60;;
13571;SDS011;6857;53.484;10.216;2023-12-20T03:08:25;11.13;;;2.60;;
13571;SDS011;6857;53.484;10.216;2023-12-20T03:10:50;9.10;;;2.47;;
13571;SDS011;6857;53.484;10.216;2023-12-20T03:13:16;11.77;;;2.30;;
13571;SDS011;6857;53.484;10.216;2023-12-20T03:15:42;10.67;;;2.13;;
13571;SDS011;6857;53.484;10.216;2023-12-20T03:18:07;12.53;;;2.10;;
13571;SDS011;6857;53.484;10.216;2023-12-20T03:20:33;9.53;;;1.93;;
13571;SDS011;6857;53.484;10.216;2023-12-20T03:22:59;12.33;;;2.10;;
13571;SDS011;6857;53.484;10.216;2023-12-20T03:25:25;12.20;;;2.70;;
13571;SDS011;6857;53.484;10.216;2023-12-20T03:27:52;10.33;;;1.80;;
13571;SDS011;6857;53.484;10.216;2023-12-20T03:30:18;5.73;;;2.13;;
13571;SDS011;6857;53.484;10.216;2023-12-20T03:32:44;9.17;;;1.60;;
13571;SDS011;6857;53.484;10.216;2023-12-20T03:35:10;8.27;;;2.10;;
13571;SDS011;6857;53.484;10.216;2023-12-20T03:37:36;12.83;;;2.23;;
13571;SDS011;6857;53.484;10.216;2023-12-20T03:40:02;6.37;;;1.90;;
13571;SDS011;6857;53.484;10.216;2023-12-20T03:42:28;8.70;;;2.13;;
13571;SDS011;6857;53.484;10.216;2023-12-20T03:44:53;12.40;;;2.13;;
13571;SDS011;6857;53.484;10.216;2023-12-20T03:47:19;8.83;;;2.03;;
13571;SDS011;6857;53.484;10.216;2023-12-20T03:49:44;10.43;;;1.90;;
13571;SDS011;6857;53.484;10.216;2023-12-20T03:52:10;7.83;;;1.70;;
13571;SDS011;6857;53.484;10.216;2023-12-20T03:54:35;8.17;;;1.60;;
13571;SDS011;6857;53.484;10.216;2023-12-20T03:57:01;11.53;;;1.97;;
13571;SDS011;6857;53.484;10.216;2023-12-20T03:59:26;7.20;;;1.60;;
13571;SDS011;6857;53.484;10.216;2023-12-20T04:01:52;10.50;;;2.27;;
13571;SDS011;6857;53.484;10.216;2023-12-20T04:04:18;12.13;;;1.70;;
13571;SDS011;6857;53.484;10.216;2023-12-20T04:06:43;7.37;;;1.70;;
13571;SDS011;6857;53.484;10.216;2023-12-20T04:09:09;4.90;;;1.70;;
13571;SDS011;6857;53.484;10.216;2023-12-20T04:11:35;9.20;;;1.90;;
13571;SDS011;6857;53.484;10.216;2023-12-20T04:14:01;8.97;;;1.93;;
13571;SDS011;6857;53.484;10.216;2023-12-20T04:16:27;13.17;;;1.87;;
13571;SDS011;6857;53.484;10.216;2023-12-20T04:18:52;6.77;;;2.00;;
13571;SDS011;6857;53.484;10.216;2023-12-20T04:21:18;7.63;;;2.40;;
13571;SDS011;6857;53.484;10.216;2023-12-20T04:23:43;7.20;;;2.27;;
13571;SDS011;6857;53.484;10.216;2023-12-20T04:26:09;9.53;;;1.83;;
13571;SDS011;6857;53.484;10.216;2023-12-20T04:28:35;5.87;;;2.47;;
13571;SDS011;6857;53.484;10.216;2023-12-20T04:31:00;9.43;;;2.83;;
13571;SDS011;6857;53.484;10.216;2023-12-20T04:33:26;9.90;;;3.37;;
13571;SDS011;6857;53.484;10.216;2023-12-20T04:35:51;10.17;;;2.70;;
13571;SDS011;6857;53.484;10.216;2023-12-20T04:38:17;7.70;;;2.53;;
13571;SDS011;6857;53.484;10.216;2023-12-20T04:40:42;8.90;;;3.03;;
13571;SDS011;6857;53.484;10.216;2023-12-20T04:43:08;12.17;;;3.63;;
13571;SDS011;6857;53.484;10.216;2023-12-20T04:45:34;8.90;;;3.57;;
13571;SDS011;6857;53.484;10.216;2023-12-20T04:47:59;7.37;;;3.33;;
13571;SDS011;6857;53.484;10.216;2023-12-20T04:50:25;11.87;;;4.33;;
13571;SDS011;6857;53.484;10.216;2023-12-20T04:52:51;7.20;;;3.93;;
13571;SDS011;6857;53.484;10.216;2023-12-20T04:55:17;9.63;;;4.03;;
13571;SDS011;6857;53.484;10.216;2023-12-20T04:57:42;12.40;;;3.30;;
13571;SDS011;6857;53.484;10.216;2023-12-20T05:00:08;12.67;;;4.33;;
13571;SDS011;6857;53.484;10.216;2023-12-20T05:02:34;13.93;;;4.23;;
13571;SDS011;6857;53.484;10.216;2023-12-20T05:05:00;13.70;;;4.33;;
13571;SDS011;6857;53.484;10.216;2023-12-20T05:07:26;13.00;;;3.47;;
13571;SDS011;6857;53.484;10.216;2023-12-20T05:09:51;12.87;;;3.80;;
13571;SDS011;6857;53.484;10.216;2023-12-20T05:12:17;7.23;;;2.83;;
13571;SDS011;6857;53.484;10.216;2023-12-20T05:14:43;8.07;;;3.10;;
13571;SDS011;6857;53.484;10.216;2023-12-20T05:17:08;24.60;;;5.87;;
13571;SDS011;6857;53.484;10.216;2023-12-20T05:19:34;13.27;;;3.60;;
13571;SDS011;6857;53.484;10.216;2023-12-20T05:22:00;17.20;;;4.50;;
13571;SDS011;6857;53.484;10.216;2023-12-20T05:24:27;13.17;;;4.10;;
13571;SDS011;6857;53.484;10.216;2023-12-20T05:26:52;14.77;;;4.37;;
13571;SDS011;6857;53.484;10.216;2023-12-20T05:29:18;14.37;;;4.07;;
13571;SDS011;6857;53.484;10.216;2023-12-20T05:31:43;10.30;;;3.63;;
13571;SDS011;6857;53.484;10.216;2023-12-20T05:34:09;12.33;;;4.03;;
13571;SDS011;6857;53.484;10.216;2023-12-20T05:36:35;12.80;;;4.40;;
13571;SDS011;6857;53.484;10.216;2023-12-20T05:39:01;12.67;;;4.07;;
13571;SDS011;6857;53.484;10.216;2023-12-20T05:41:28;8.47;;;3.67;;
13571;SDS011;6857;53.484;10.216;2023-12-20T05:43:54;17.50;;;4.60;;
13571;SDS011;6857;53.484;10.216;2023-12-20T05:46:19;10.87;;;4.93;;
13571;SDS011;6857;53.484;10.216;2023-12-20T05:48:46;12.83;;;4.10;;
13571;SDS011;6857;53.484;10.216;2023-12-20T05:51:12;8.40;;;4.20;;
13571;SDS011;6857;53.484;10.216;2023-12-20T05:53:38;12.90;;;3.93;;
13571;SDS011;6857;53.484;10.216;2023-12-20T05:56:03;13.67;;;4.80;;
13571;SDS011;6857;53.484;10.216;2023-12-20T05:58:29;11.83;;;4.07;;
13571;SDS011;6857;53.484;10.216;2023-12-20T06:00:55;14.30;;;3.97;;
13571;SDS011;6857;53.484;10.216;2023-12-20T06:03:20;10.40;;;3.90;;
13571;SDS011;6857;53.484;10.216;2023-12-20T06:05:46;8.40;;;3.30;;
13571;SDS011;6857;53.484;10.216;2023-12-20T06:08:11;12.83;;;3.87;;
13571;SDS011;6857;53.484;10.216;2023-12-20T06:10:37;8.67;;;3.37;;
13571;SDS011;6857;53.484;10.216;2023-12-20T06:13:02;14.97;;;4.30;;
13571;SDS011;6857;53.484;10.216;2023-12-20T06:15:29;11.13;;;3.50;;
13571;SDS011;6857;53.484;10.216;2023-12-20T06:17:55;14.77;;;4.33;;
13571;SDS011;6857;53.484;10.216;2023-12-20T06:20:20;16.97;;;3.53;;
13571;SDS011;6857;53.484;10.216;2023-12-20T06:22:46;11.20;;;3.47;;
13571;SDS011;6857;53.484;10.216;2023-12-20T06:25:11;9.97;;;3.50;;
13571;SDS011;6857;53.484;10.216;2023-12-20T06:27:37;12.77;;;3.60;;
13571;SDS011;6857;53.484;10.216;2023-12-20T06:30:03;7.73;;;3.33;;
13571;SDS011;6857;53.484;10.216;2023-12-20T06:32:29;9.53;;;3.03;;
13571;SDS011;6857;53.484;10.216;2023-12-20T06:34:54;13.90;;;3.10;;
13571;SDS011;6857;53.484;10.216;2023-12-20T06:37:20;14.27;;;3.90;;
13571;SDS011;6857;53.484;10.216;2023-12-20T06:39:45;10.37;;;3.00;;
13571;SDS011;6857;53.484;10.216;2023-12-20T06:42:11;11.70;;;3.60;;
13571;SDS011;6857;53.484;10.216;2023-12-20T06:44:37;7.90;;;2.70;;
13571;SDS011;6857;53.484;10.216;2023-12-20T06:49:39;12.30;;;4.07;;
13571;SDS011;6857;53.484;10.216;2023-12-20T06:52:05;16.33;;;3.70;;
13571;SDS011;6857;53.484;10.216;2023-12-20T06:54:31;13.83;;;2.87;;
13571;SDS011;6857;53.484;10.216;2023-12-20T06:56:56;8.77;;;3.47;;
13571;SDS011;6857;53.484;10.216;2023-12-20T06:59:22;10.07;;;2.77;;
13571;SDS011;6857;53.484;10.216;2023-12-20T07:01:48;12.73;;;3.60;;
13571;SDS011;6857;53.484;10.216;2023-12-20T07:04:14;8.97;;;2.30;;
13571;SDS011;6857;53.484;10.216;2023-12-20T07:06:41;10.17;;;2.57;;
13571;SDS011;6857;53.484;10.216;2023-12-20T07:09:07;13.03;;;3.27;;
13571;SDS011;6857;53.484;10.216;2023-12-20T07:11:32;14.50;;;3.20;;
13571;SDS011;6857;53.484;10.216;2023-12-20T07:13:58;10.43;;;2.80;;
13571;SDS011;6857;53.484;10.216;2023-12-20T07:16:23;12.33;;;2.97;;
13571;SDS011;6857;53.484;10.216;2023-12-20T07:18:49;11.13;;;3.47;;
13571;SDS011;6857;53.484;10.216;2023-12-20T07:21:15;17.50;;;3.37;;
13571;SDS011;6857;53.484;10.216;2023-12-20T07:23:40;14.20;;;3.10;;
13571;SDS011;6857;53.484;10.216;2023-12-20T07:26:06;7.27;;;2.87;;
13571;SDS011;6857;53.484;10.216;2023-12-20T07:28:31;12.33;;;3.57;;
13571;SDS011;6857;53.484;10.216;2023-12-20T07:30:57;16.37;;;3.50;;
13571;SDS011;6857;53.484;10.216;2023-12-20T07:33:22;10.30;;;3.23;;
13571;SDS011;6857;53.484;10.216;2023-12-20T07:35:48;11.33;;;3.47;;
13571;SDS011;6857;53.484;10.216;2023-12-20T07:38:14;9.97;;;3.00;;
13571;SDS011;6857;53.484;10.216;2023-12-20T07:40:39;9.37;;;3.00;;
13571;SDS011;6857;53.484;10.216;2023-12-20T07:43:05;10.87;;;3.67;;
13571;SDS011;6857;53.484;10.216;2023-12-20T07:45:30;9.47;;;3.23;;
13571;SDS011;6857;53.484;10.216;2023-12-20T07:47:56;15.97;;;3.43;;
13571;SDS011;6857;53.484;10.216;2023-12-20T07:50:21;11.47;;;3.20;;
13571;SDS011;6857;53.484;10.216;2023-12-20T07:52:47;12.70;;;3.40;;
13571;SDS011;6857;53.484;10.216;2023-12-20T07:55:12;15.97;;;3.87;;
13571;SDS011;6857;53.484;10.216;2023-12-20T07:57:38;13.43;;;3.30;;
13571;SDS011;6857;53.484;10.216;2023-12-20T08:00:04;16.10;;;4.00;;
13571;SDS011;6857;53.484;10.216;2023-12-20T08:02:30;15.53;;;2.80;;
13571;SDS011;6857;53.484;10.216;2023-12-20T08:04:55;13.17;;;3.20;;
13571;SDS011;6857;53.484;10.216;2023-12-20T08:07:21;10.00;;;3.13;;
13571;SDS011;6857;53.484;10.216;2023-12-20T08:09:46;10.60;;;3.03;;
13571;SDS011;6857;53.484;10.216;2023-12-20T08:12:12;14.17;;;2.73;;
13571;SDS011;6857;53.484;10.216;2023-12-20T08:14:38;13.07;;;3.07;;
13571;SDS011;6857;53.484;10.216;2023-12-20T08:17:03;12.57;;;3.57;;
13571;SDS011;6857;53.484;10.216;2023-12-20T08:19:29;10.53;;;4.23;;
13571;SDS011;6857;53.484;10.216;2023-12-20T08:21:54;20.10;;;4.13;;
13571;SDS011;6857;53.484;10.216;2023-12-20T08:24:20;10.27;;;3.37;;
13571;SDS011;6857;53.484;10.216;2023-12-20T08:26:45;15.83;;;3.73;;
13571;SDS011;6857;53.484;10.216;2023-12-20T08:29:12;13.37;;;4.07;;
13571;SDS011;6857;53.484;10.216;2023-12-20T08:31:38;18.20;;;4.00;;
13571;SDS011;6857;53.484;10.216;2023-12-20T08:34:04;15.77;;;3.57;;
13571;SDS011;6857;53.484;10.216;2023-12-20T08:36:29;14.07;;;4.33;;
13571;SDS011;6857;53.484;10.216;2023-12-20T08:38:55;9.77;;;3.50;;
13571;SDS011;6857;53.484;10.216;2023-12-20T08:41:20;15.43;;;3.50;;
13571;SDS011;6857;53.484;10.216;2023-12-20T08:43:46;15.10;;;3.57;;
13571;SDS011;6857;53.484;10.216;2023-12-20T08:46:11;13.93;;;2.90;;
13571;SDS011;6857;53.484;10.216;2023-12-20T08:48:38;9.63;;;3.07;;
13571;SDS011;6857;53.484;10.216;2023-12-20T08:51:04;14.03;;;4.03;;
13571;SDS011;6857;53.484;10.216;2023-12-20T08:53:32;10.93;;;3.57;;
13571;SDS011;6857;53.484;10.216;2023-12-20T08:55:58;8.83;;;3.03;;
13571;SDS011;6857;53.484;10.216;2023-12-20T08:58:26;13.43;;;3.30;;
13571;SDS011;6857;53.484;10.216;2023-12-20T09:00:51;10.53;;;2.67;;
13571;SDS011;6857;53.484;10.216;2023-12-20T09:03:17;21.90;;;3.53;;
13571;SDS011;6857;53.484;10.216;2023-12-20T09:05:42;15.97;;;2.87;;
13571;SDS011;6857;53.484;10.216;2023-12-20T09:08:08;9.73;;;3.00;;
13571;SDS011;6857;53.484;10.216;2023-12-20T09:10:35;14.47;;;3.20;;
13571;SDS011;6857;53.484;10.216;2023-12-20T09:13:02;10.60;;;2.80;;
13571;SDS011;6857;53.484;10.216;2023-12-20T09:15:29;8.50;;;2.50;;
13571;SDS011;6857;53.484;10.216;2023-12-20T09:17:55;7.63;;;1.73;;
13571;SDS011;6857;53.484;10.216;2023-12-20T09:20:20;8.50;;;2.10;;
13571;SDS011;6857;53.484;10.216;2023-12-20T09:22:48;5.67;;;1.93;;
13571;SDS011;6857;53.484;10.216;2023-12-20T09:27:44;6.87;;;1.70;;
13571;SDS011;6857;53.484;10.216;2023-12-20T09:30:10;7.93;;;1.70;;
13571;SDS011;6857;53.484;10.216;2023-12-20T09:32:36;5.60;;;1.50;;
13571;SDS011;6857;53.484;10.216;2023-12-20T09:35:02;4.50;;;1.33;;
13571;SDS011;6857;53.484;10.216;2023-12-20T09:37:27;5.10;;;1.30;;
13571;SDS011;6857;53.484;10.216;2023-12-20T09:39:53;4.43;;;1.00;;
13571;SDS011;6857;53.484;10.216;2023-12-20T09:42:21;3.37;;;1.03;;
13571;SDS011;6857;53.484;10.216;2023-12-20T09:44:54;3.23;;;0.93;;
13571;SDS011;6857;53.484;10.216;2023-12-20T09:47:22;4.97;;;1.00;;
13571;SDS011;6857;53.484;10.216;2023-12-20T09:49:49;10.93;;;1.20;;
13571;SDS011;6857;53.484;10.216;2023-12-20T09:52:15;2.10;;;0.70;;
13571;SDS011;6857;53.484;10.216;2023-12-20T09:54:42;2.03;;;0.97;;
13571;SDS011;6857;53.484;10.216;2023-12-20T09:57:09;3.07;;;0.77;;
13571;SDS011;6857;53.484;10.216;2023-12-20T09:59:35;1.50;;;0.80;;
13571;SDS011;6857;53.484;10.216;2023-12-20T10:02:00;2.00;;;0.80;;
13571;SDS011;6857;53.484;10.216;2023-12-20T10:04:30;3.57;;;0.60;;
13571;SDS011;6857;53.484;10.216;2023-12-20T10:06:57;3.03;;;1.37;;
13571;SDS011;6857;53.484;10.216;2023-12-20T10:09:28;3.60;;;0.77;;
13571;SDS011;6857;53.484;10.216;2023-12-20T10:11:56;1.47;;;0.67;;
13571;SDS011;6857;53.484;10.216;2023-12-20T10:14:23;1.13;;;0.70;;
13571;SDS011;6857;53.484;10.216;2023-12-20T10:16:49;2.53;;;0.70;;
13571;SDS011;6857;53.484;10.216;2023-12-20T10:19:16;2.10;;;0.50;;
13571;SDS011;6857;53.484;10.216;2023-12-20T10:21:43;1.57;;;0.57;;
13571;SDS011;6857;53.484;10.216;2023-12-20T10:24:09;1.30;;;0.50;;
13571;SDS011;6857;53.484;10.216;2023-12-20T10:26:42;0.80;;;0.40;;
13571;SDS011;6857;53.484;10.216;2023-12-20T10:29:08;1.23;;;0.33;;
13571;SDS011;6857;53.484;10.216;2023-12-20T10:31:34;3.23;;;0.40;;
13571;SDS011;6857;53.484;10.216;2023-12-20T10:34:01;0.87;;;0.50;;
13571;SDS011;6857;53.484;10.216;2023-12-20T10:36:31;1.20;;;0.60;;
13571;SDS011;6857;53.484;10.216;2023-12-20T10:38:58;1.20;;;0.53;;
13571;SDS011;6857;53.484;10.216;2023-12-20T10:41:25;3.33;;;0.60;;
13571;SDS011;6857;53.484;10.216;2023-12-20T10:43:56;5.20;;;0.67;;
13571;SDS011;6857;53.484;10.216;2023-12-20T10:46:24;5.40;;;1.07;;
13571;SDS011;6857;53.484;10.216;2023-12-20T10:48:55;1.97;;;0.63;;
13571;SDS011;6857;53.484;10.216;2023-12-20T10:51:21;4.00;;;0.93;;
13571;SDS011;6857;53.484;10.216;2023-12-20T10:53:49;2.23;;;0.97;;
13571;SDS011;6857;53.484;10.216;2023-12-20T10:56:16;3.20;;;0.70;;
13571;SDS011;6857;53.484;10.216;2023-12-20T10:58:46;4.80;;;0.80;;
13571;SDS011;6857;53.484;10.216;2023-12-20T11:01:13;3.43;;;1.00;;
13571;SDS011;6857;53.484;10.216;2023-12-20T11:03:44;2.73;;;0.90;;
13571;SDS011;6857;53.484;10.216;2023-12-20T11:14:34;3.83;;;0.80;;
13571;SDS011;6857;53.484;10.216;2023-12-20T11:19:35;3.70;;;1.67;;
13571;SDS011;6857;53.484;10.216;2023-12-20T11:22:01;5.70;;;1.00;;
13571;SDS011;6857;53.484;10.216;2023-12-20T11:24:30;5.37;;;1.40;;
13571;SDS011;6857;53.484;10.216;2023-12-20T11:26:57;2.20;;;0.67;;
13571;SDS011;6857;53.484;10.216;2023-12-20T11:29:35;3.93;;;0.70;;
13571;SDS011;6857;53.484;10.216;2023-12-20T11:32:01;7.27;;;1.10;;
13571;SDS011;6857;53.484;10.216;2023-12-20T11:34:31;5.77;;;1.83;;
13571;SDS011;6857;53.484;10.216;2023-12-20T11:37:00;3.50;;;1.10;;
13571;SDS011;6857;53.484;10.216;2023-12-20T11:39:27;7.00;;;1.43;;
13571;SDS011;6857;53.484;10.216;2023-12-20T11:41:56;6.67;;;1.10;;
13571;SDS011;6857;53.484;10.216;2023-12-20T11:44:27;5.70;;;1.00;;
13571;SDS011;6857;53.484;10.216;2023-12-20T11:46:56;3.77;;;1.00;;
13571;SDS011;6857;53.484;10.216;2023-12-20T11:49:24;3.63;;;1.00;;
13571;SDS011;6857;53.484;10.216;2023-12-20T11:51:50;7.27;;;1.63;;
13571;SDS011;6857;53.484;10.216;2023-12-20T11:54:16;4.97;;;1.40;;
13571;SDS011;6857;53.484;10.216;2023-12-20T11:56:41;12.47;;;2.43;;
13571;SDS011;6857;53.484;10.216;2023-12-20T11:59:08;6.90;;;2.13;;
13571;SDS011;6857;53.484;10.216;2023-12-20T12:01:34;6.90;;;1.40;;
13571;SDS011;6857;53.484;10.216;2023-12-20T12:04:03;8.90;;;2.07;;
13571;SDS011;6857;53.484;10.216;2023-12-20T12:06:29;7.50;;;1.30;;
13571;SDS011;6857;53.484;10.216;2023-12-20T12:08:55;4.63;;;1.37;;
13571;SDS011;6857;53.484;10.216;2023-12-20T12:11:21;6.30;;;1.63;;
13571;SDS011;6857;53.484;10.216;2023-12-20T12:13:47;7.07;;;1.43;;
13571;SDS011;6857;53.484;10.216;2023-12-20T12:16:16;9.47;;;2.00;;
13571;SDS011;6857;53.484;10.216;2023-12-20T12:18:45;8.83;;;1.50;;
13571;SDS011;6857;53.484;10.216;2023-12-20T12:21:18;4.67;;;1.20;;
13571;SDS011;6857;53.484;10.216;2023-12-20T12:23:45;8.73;;;1.80;;
13571;SDS011;6857;53.484;10.216;2023-12-20T12:26:11;11.70;;;2.47;;
13571;SDS011;6857;53.484;10.216;2023-12-20T12:28:37;11.40;;;1.87;;
13571;SDS011;6857;53.484;10.216;2023-12-20T12:31:05;8.30;;;1.33;;
13571;SDS011;6857;53.484;10.216;2023-12-20T12:33:31;8.23;;;1.93;;
13571;SDS011;6857;53.484;10.216;2023-12-20T12:35:57;9.03;;;2.47;;
13571;SDS011;6857;53.484;10.216;2023-12-20T12:38:22;10.03;;;1.63;;
13571;SDS011;6857;53.484;10.216;2023-12-20T12:40:49;9.33;;;2.13;;
13571;SDS011;6857;53.484;10.216;2023-12-20T12:43:15;10.07;;;2.30;;
13571;SDS011;6857;53.484;10.216;2023-12-20T12:45:41;9.83;;;2.17;;
13571;SDS011;6857;53.484;10.216;2023-12-20T12:48:07;10.57;;;2.30;;
13571;SDS011;6857;53.484;10.216;2023-12-20T12:50:32;7.43;;;2.10;;
13571;SDS011;6857;53.484;10.216;2023-12-20T12:52:58;9.47;;;2.47;;
13571;SDS011;6857;53.484;10.216;2023-12-20T12:55:24;13.73;;;2.50;;
13571;SDS011;6857;53.484;10.216;2023-12-20T12:57:49;7.40;;;1.80;;
13571;SDS011;6857;53.484;10.216;2023-12-20T13:00:15;7.23;;;1.87;;
13571;SDS011;6857;53.484;10.216;2023-12-20T13:02:40;7.63;;;1.90;;
13571;SDS011;6857;53.484;10.216;2023-12-20T13:05:07;10.70;;;2.87;;
13571;SDS011;6857;53.484;10.216;2023-12-20T13:07:33;12.23;;;2.53;;
13571;SDS011;6857;53.484;10.216;2023-12-20T13:09:59;7.23;;;1.90;;
13571;SDS011;6857;53.484;10.216;2023-12-20T13:12:25;9.00;;;2.13;;
13571;SDS011;6857;53.484;10.216;2023-12-20T13:14:51;11.93;;;1.80;;
13571;SDS011;6857;53.484;10.216;2023-12-20T13:17:16;13.00;;;1.97;;
13571;SDS011;6857;53.484;10.216;2023-12-20T13:19:42;12.37;;;1.73;;
13571;SDS011;6857;53.484;10.216;2023-12-20T13:22:08;7.20;;;1.60;;
13571;SDS011;6857;53.484;10.216;2023-12-20T13:24:34;7.37;;;2.10;;
13571;SDS011;6857;53.484;10.216;2023-12-20T13:26:59;12.93;;;1.97;;
13571;SDS011;6857;53.484;10.216;2023-12-20T13:29:25;18.87;;;3.00;;
13571;SDS011;6857;53.484;10.216;2023-12-20T13:31:52;11.67;;;2.10;;
13571;SDS011;6857;53.484;10.216;2023-12-20T13:34:18;7.33;;;2.43;;
13571;SDS011;6857;53.484;10.216;2023-12-20T13:36:44;13.33;;;2.20;;
13571;SDS011;6857;53.484;10.216;2023-12-20T13:39:15;12.90;;;2.67;;
13571;SDS011;6857;53.484;10.216;2023-12-20T13:41:41;10.10;;;2.30;;
13571;SDS011;6857;53.484;10.216;2023-12-20T13:44:07;11.43;;;2.23;;
13571;SDS011;6857;53.484;10.216;2023-12-20T13:46:33;13.27;;;3.13;;
13571;SDS011;6857;53.484;10.216;2023-12-20T13:48:58;8.60;;;2.20;;
13571;SDS011;6857;53.484;10.216;2023-12-20T13:51:24;12.50;;;2.40;;
13571;SDS011;6857;53.484;10.216;2023-12-20T13:53:50;12.03;;;2.23;;
13571;SDS011;6857;53.484;10.216;2023-12-20T13:56:16;10.83;;;2.37;;
13571;SDS011;6857;53.484;10.216;2023-12-20T13:58:41;9.80;;;2.47;;
13571;SDS011;6857;53.484;10.216;2023-12-20T14:01:08;11.17;;;3.23;;
13571;SDS011;6857;53.484;10.216;2023-12-20T14:03:35;14.13;;;3.03;;
13571;SDS011;6857;53.484;10.216;2023-12-20T14:06:00;14.93;;;2.87;;
13571;SDS011;6857;53.484;10.216;2023-12-20T14:08:29;13.87;;;3.70;;
13571;SDS011;6857;53.484;10.216;2023-12-20T14:10:54;16.83;;;3.10;;
13571;SDS011;6857;53.484;10.216;2023-12-20T14:13:20;13.63;;;2.70;;
13571;SDS011;6857;53.484;10.216;2023-12-20T14:15:46;10.77;;;2.97;;
13571;SDS011;6857;53.484;10.216;2023-12-20T14:18:12;17.90;;;3.17;;
13571;SDS011;6857;53.484;10.216;2023-12-20T14:20:39;23.57;;;3.63;;
13571;SDS011;6857;53.484;10.216;2023-12-20T14:23:07;18.20;;;3.00;;
13571;SDS011;6857;53.484;10.216;2023-12-20T14:25:34;19.13;;;3.50;;
13571;SDS011;6857;53.484;10.216;2023-12-20T14:28:04;17.63;;;3.43;;
13571;SDS011;6857;53.484;10.216;2023-12-20T14:30:30;12.60;;;2.97;;
13571;SDS011;6857;53.484;10.216;2023-12-20T14:32:56;18.17;;;3.73;;
13571;SDS011;6857;53.484;10.216;2023-12-20T14:35:21;13.77;;;3.13;;
13571;SDS011;6857;53.484;10.216;2023-12-20T14:37:47;14.47;;;3.40;;
13571;SDS011;6857;53.484;10.216;2023-12-20T14:40:15;19.20;;;3.53;;
13571;SDS011;6857;53.484;10.216;2023-12-20T14:42:42;16.53;;;3.30;;
13571;SDS011;6857;53.484;10.216;2023-12-20T14:45:08;15.10;;;3.33;;
13571;SDS011;6857;53.484;10.216;2023-12-20T14:47:34;14.37;;;3.73;;
13571;SDS011;6857;53.484;10.216;2023-12-20T14:50:01;9.77;;;3.53;;